Time;durP1;ratioP1;P1;durP2;ratioP2;P2;SDS_P1;SDS_P2;PMS_P1;PMS_P2;Temp;Humidity;BMP_temperature;BMP_pressure;BME280_temperature;BME280_humidity;BME280_pressure;Samples;Min_cycle;Max_cycle;Signal;HPM_P1;HPM_P2
2021/11/15 00:00:42;;;;;;;29.95;20.95;;;8.50;99.90;;;;;;5114799;28;20199;-67
2021/11/15 00:03:13;;;;;;;23.77;18.23;;;8.50;99.90;;;;;;5114946;28;20183;-67
2021/11/15 00:05:40;;;;;;;25.42;17.88;;;8.50;99.90;;;;;;5114047;28;20583;-67
2021/11/15 00:08:06;;;;;;;22.83;17.55;;;8.50;99.90;;;;;;5114402;28;20199;-67
2021/11/15 00:10:33;;;;;;;20.08;16.08;;;8.50;99.90;;;;;;5114259;28;20202;-67
2021/11/15 00:12:59;;;;;;;23.70;16.27;;;8.40;99.90;;;;;;5113999;28;20662;-67
2021/11/15 00:15:29;;;;;;;20.50;15.88;;;8.40;99.90;;;;;;5114492;28;20589;-67
2021/11/15 00:17:58;;;;;;;24.17;16.17;;;8.40;99.90;;;;;;5114215;28;20211;-67
2021/11/15 00:20:26;;;;;;;22.23;17.60;;;8.40;99.90;;;;;;5114195;28;20198;-67
2021/11/15 00:22:53;;;;;;;20.48;14.73;;;8.40;99.90;;;;;;5114585;28;20552;-67
2021/11/15 00:25:20;;;;;;;21.42;17.25;;;8.40;99.90;;;;;;5114068;28;20605;-67
2021/11/15 00:27:46;;;;;;;21.23;17.58;;;8.40;99.90;;;;;;5114285;28;20302;-67
2021/11/15 00:30:14;;;;;;;21.98;17.33;;;8.40;99.90;;;;;;5114360;28;20207;-67
2021/11/15 00:32:41;;;;;;;22.33;18.10;;;8.40;99.90;;;;;;5114364;28;20194;-67
2021/11/15 00:35:08;;;;;;;24.17;17.17;;;8.40;99.90;;;;;;5113684;28;20693;-67
2021/11/15 00:37:36;;;;;;;23.55;16.65;;;8.40;99.90;;;;;;5114652;28;20202;-67
2021/11/15 00:40:05;;;;;;;22.50;16.77;;;8.40;99.90;;;;;;5113896;28;20211;-67
2021/11/15 00:42:31;;;;;;;22.65;17.27;;;8.40;99.90;;;;;;5113624;28;20201;-67
2021/11/15 00:44:58;;;;;;;19.58;16.38;;;8.30;99.90;;;;;;5113769;28;20205;-66
2021/11/15 00:47:24;;;;;;;20.38;15.45;;;8.40;99.90;;;;;;5095215;28;20199;-66
2021/11/15 00:49:51;;;;;;;20.70;16.42;;;8.30;99.90;;;;;;5095927;28;20316;-66
2021/11/15 00:52:18;;;;;;;21.30;17.30;;;8.30;99.90;;;;;;5092059;28;20235;-66
2021/11/15 00:54:44;;;;;;;18.90;16.08;;;8.30;99.90;;;;;;5093539;28;20219;-66
2021/11/15 00:57:11;;;;;;;26.90;16.88;;;8.40;99.90;;;;;;5093233;28;20270;-66
2021/11/15 00:59:37;;;;;;;21.60;17.55;;;8.30;99.90;;;;;;5093216;28;20203;-66
2021/11/15 01:02:04;;;;;;;21.83;16.83;;;8.40;99.90;;;;;;5094005;28;20210;-66
2021/11/15 01:04:31;;;;;;;21.50;17.08;;;8.30;99.90;;;;;;5097714;28;20206;-66
2021/11/15 01:06:57;;;;;;;24.70;18.50;;;8.30;99.90;;;;;;5079636;28;20199;-67
2021/11/15 01:09:24;;;;;;;22.13;17.38;;;8.30;99.90;;;;;;5097702;28;20264;-67
2021/11/15 01:11:53;;;;;;;27.02;18.50;;;8.30;99.90;;;;;;5097566;28;20662;-66
2021/11/15 01:14:20;;;;;;;23.05;17.13;;;8.30;99.90;;;;;;5097057;28;20219;-66
2021/11/15 01:16:47;;;;;;;24.38;16.08;;;8.40;99.90;;;;;;5097436;28;20198;-66
2021/11/15 01:19:14;;;;;;;20.95;17.10;;;8.40;99.90;;;;;;5097594;28;20210;-66
2021/11/15 01:21:42;;;;;;;19.15;16.48;;;8.40;99.90;;;;;;5097116;28;20207;-66
2021/11/15 01:24:09;;;;;;;22.83;18.45;;;8.30;99.90;;;;;;5097440;28;20615;-67
2021/11/15 01:26:36;;;;;;;20.40;16.80;;;8.40;99.90;;;;;;5097516;28;20214;-67
2021/11/15 01:29:03;;;;;;;21.30;17.10;;;8.40;99.90;;;;;;5096660;28;20214;-67
2021/11/15 01:31:30;;;;;;;24.45;17.35;;;8.40;99.90;;;;;;5097334;28;20206;-67
2021/11/15 01:33:57;;;;;;;21.10;16.67;;;8.40;99.90;;;;;;5096891;28;20704;-67
2021/11/15 01:36:23;;;;;;;24.02;17.85;;;8.40;99.90;;;;;;5096977;28;20203;-67
2021/11/15 01:38:50;;;;;;;24.08;18.70;;;8.40;99.90;;;;;;5096419;28;20195;-67
2021/11/15 01:41:16;;;;;;;20.45;17.02;;;8.50;99.90;;;;;;5096908;28;20222;-67
2021/11/15 01:43:43;;;;;;;24.20;16.67;;;8.50;99.90;;;;;;5095001;28;20214;-67
2021/11/15 01:46:09;;;;;;;22.50;16.80;;;8.50;99.90;;;;;;5094694;28;20195;-67
2021/11/15 01:48:36;;;;;;;24.50;17.33;;;8.60;99.90;;;;;;5096754;28;20210;-67
2021/11/15 01:51:02;;;;;;;23.08;16.20;;;8.60;99.90;;;;;;5098697;28;20208;-67
2021/11/15 01:53:29;;;;;;;24.77;17.35;;;8.60;99.90;;;;;;5116896;28;20222;-67
2021/11/15 01:55:55;;;;;;;21.05;17.33;;;8.60;99.90;;;;;;5116389;28;20662;-67
2021/11/15 01:58:22;;;;;;;23.02;16.55;;;8.60;99.90;;;;;;5116318;28;20202;-66
2021/11/15 02:00:56;;;;;;;21.85;15.63;;;8.60;99.90;;;;;;5116736;28;20590;-67
2021/11/15 02:03:24;;;;;;;24.60;16.05;;;8.60;99.90;;;;;;5117045;28;20512;-66
2021/11/15 02:05:51;;;;;;;22.92;16.08;;;8.60;99.90;;;;;;5116742;28;20251;-66
2021/11/15 02:08:18;;;;;;;23.15;16.02;;;8.60;99.90;;;;;;5116497;28;20722;-66
2021/11/15 02:10:45;;;;;;;22.90;17.00;;;8.60;99.90;;;;;;5116296;28;20553;-66
2021/11/15 02:13:18;;;;;;;22.52;15.80;;;8.60;99.90;;;;;;5115801;28;20194;-66
2021/11/15 02:15:45;;;;;;;24.42;16.77;;;8.50;99.90;;;;;;5115715;28;20226;-66
2021/11/15 02:18:12;;;;;;;21.60;15.38;;;8.60;99.90;;;;;;5116919;28;20198;-66
2021/11/15 02:21:00;;;;;;;23.90;15.25;;;8.60;99.90;;;;;;5116554;28;20206;-66
2021/11/15 02:23:33;;;;;;;22.27;16.23;;;8.70;99.90;;;;;;5116649;28;20187;-66
2021/11/15 02:26:00;;;;;;;22.38;16.80;;;8.70;99.90;;;;;;5115760;28;20206;-66
2021/11/15 02:28:30;;;;;;;21.80;16.02;;;8.60;99.90;;;;;;5116427;28;20226;-66
2021/11/15 02:30:57;;;;;;;18.73;14.98;;;8.60;99.90;;;;;;5116690;28;20259;-67
2021/11/15 02:33:25;;;;;;;19.85;15.10;;;8.70;99.90;;;;;;5116432;28;20259;-67
2021/11/15 02:35:52;;;;;;;19.35;12.60;;;8.80;99.90;;;;;;5115862;28;20191;-67
2021/11/15 02:38:18;;;;;;;19.83;13.05;;;8.80;99.90;;;;;;5115985;28;20550;-67
2021/11/15 02:40:45;;;;;;;19.42;14.15;;;8.90;99.90;;;;;;5115939;28;20198;-67
2021/11/15 02:43:11;;;;;;;24.58;14.63;;;8.90;99.90;;;;;;5116141;28;20198;-67
2021/11/15 02:45:38;;;;;;;21.52;15.98;;;8.90;99.90;;;;;;5115963;28;20199;-67
2021/11/15 02:48:05;;;;;;;19.50;15.13;;;8.80;99.90;;;;;;5115239;28;20669;-67
2021/11/15 02:50:33;;;;;;;19.95;14.23;;;8.90;99.90;;;;;;5115667;28;20210;-67
2021/11/15 02:53:03;;;;;;;20.42;13.30;;;8.80;99.90;;;;;;5115729;28;20253;-67
2021/11/15 02:55:30;;;;;;;22.75;13.98;;;8.80;99.90;;;;;;5115462;28;20223;-67
2021/11/15 02:57:59;;;;;;;18.60;13.70;;;8.90;99.90;;;;;;5115714;28;20203;-67
2021/11/15 03:00:28;;;;;;;22.88;14.00;;;8.90;99.90;;;;;;5115372;28;20194;-67
2021/11/15 03:02:57;;;;;;;23.23;14.30;;;8.90;99.90;;;;;;5115345;28;20199;-67
2021/11/15 03:05:26;;;;;;;21.42;13.10;;;8.90;99.90;;;;;;5115417;28;20202;-67
2021/11/15 03:07:53;;;;;;;15.40;12.30;;;8.90;99.90;;;;;;5115683;28;20263;-67
2021/11/15 03:10:20;;;;;;;19.23;12.38;;;8.90;99.90;;;;;;5115511;28;20210;-67
2021/11/15 03:12:46;;;;;;;17.27;12.65;;;8.80;99.90;;;;;;5115445;28;20206;-67
2021/11/15 03:15:28;;;;;;;14.68;11.70;;;8.80;99.90;;;;;;5115177;28;20227;-67
2021/11/15 03:18:04;;;;;;;14.63;11.55;;;8.80;99.90;;;;;;5115112;28;20658;-67
2021/11/15 03:20:33;;;;;;;21.13;12.18;;;8.80;99.90;;;;;;5079576;28;20251;-66
2021/11/15 03:23:03;;;;;;;18.08;12.48;;;8.80;99.90;;;;;;5115073;28;20247;-66
2021/11/15 03:25:30;;;;;;;18.58;12.70;;;8.80;99.90;;;;;;5095962;28;20206;-66
2021/11/15 03:27:57;;;;;;;18.98;13.00;;;8.80;99.90;;;;;;5115131;28;20206;-66
2021/11/15 03:30:25;;;;;;;17.00;12.27;;;8.70;99.90;;;;;;5114657;28;20572;-66
2021/11/15 03:32:53;;;;;;;17.45;10.52;;;8.70;99.90;;;;;;5115271;28;20203;-66
2021/11/15 03:35:20;;;;;;;12.43;10.07;;;8.70;99.90;;;;;;5114980;28;20224;-66
2021/11/15 03:37:47;;;;;;;12.90;10.25;;;8.70;99.90;;;;;;5096761;28;20194;-66
2021/11/15 03:40:20;;;;;;;14.70;9.77;;;8.70;99.90;;;;;;5114192;28;20205;-66
2021/11/15 03:42:48;;;;;;;10.80;8.75;;;8.60;99.90;;;;;;5114731;28;20626;-66
2021/11/15 03:45:15;;;;;;;14.93;9.45;;;8.60;99.90;;;;;;5114501;28;20206;-66
2021/11/15 03:47:42;;;;;;;12.45;8.85;;;8.60;99.90;;;;;;5114492;28;20195;-66
2021/11/15 03:50:09;;;;;;;16.58;10.23;;;8.60;99.90;;;;;;5096234;28;20669;-66
2021/11/15 03:52:37;;;;;;;17.67;10.60;;;8.60;99.90;;;;;;5113884;28;20231;-66
2021/11/15 03:55:06;;;;;;;13.75;9.65;;;8.60;99.90;;;;;;5114623;28;20272;-66
2021/11/15 03:57:33;;;;;;;11.88;9.07;;;8.60;99.90;;;;;;5114499;28;20706;-66
2021/11/15 03:59:59;;;;;;;15.00;10.02;;;8.60;99.90;;;;;;5114461;28;20609;-66
2021/11/15 04:02:29;;;;;;;13.48;9.27;;;8.50;99.90;;;;;;5114210;28;20240;-66
2021/11/15 04:05:03;;;;;;;14.00;9.77;;;8.50;99.90;;;;;;5113716;28;20209;-66
2021/11/15 04:07:41;;;;;;;12.45;8.45;;;8.50;99.90;;;;;;5113447;28;20202;-66
2021/11/15 04:10:18;;;;;;;13.60;8.98;;;8.50;99.90;;;;;;5113324;28;20259;-66
2021/11/15 04:12:46;;;;;;;16.15;9.25;;;8.50;99.90;;;;;;5113816;28;20641;-66
2021/11/15 04:15:13;;;;;;;13.77;9.88;;;8.50;99.90;;;;;;5113643;28;20588;-66
2021/11/15 04:17:43;;;;;;;14.93;10.10;;;8.50;99.90;;;;;;5114442;28;20198;-66
2021/11/15 04:20:14;;;;;;;14.68;10.00;;;8.50;99.90;;;;;;5114372;28;20202;-66
2021/11/15 04:22:40;;;;;;;13.40;9.65;;;8.50;99.90;;;;;;5114342;28;20235;-66
2021/11/15 04:25:09;;;;;;;16.15;8.63;;;8.50;99.90;;;;;;5113799;28;20645;-66
2021/11/15 04:27:36;;;;;;;13.73;9.57;;;8.40;99.90;;;;;;5114243;28;20198;-66
2021/11/15 04:30:05;;;;;;;17.42;11.10;;;8.40;99.90;;;;;;5114060;28;20202;-66
2021/11/15 04:32:32;;;;;;;17.27;11.00;;;8.40;99.90;;;;;;5114112;28;20605;-66
2021/11/15 04:34:58;;;;;;;14.75;10.73;;;8.40;99.90;;;;;;5113834;28;20754;-66
2021/11/15 04:37:24;;;;;;;14.80;10.38;;;8.40;99.90;;;;;;5094913;28;20275;-66
2021/11/15 04:39:53;;;;;;;16.85;10.25;;;8.40;99.90;;;;;;5114279;28;20205;-66
2021/11/15 04:42:20;;;;;;;13.25;9.73;;;8.40;99.90;;;;;;5114013;28;20252;-66
2021/11/15 04:44:46;;;;;;;14.55;10.63;;;8.40;99.90;;;;;;5113949;28;20199;-67
2021/11/15 04:47:12;;;;;;;19.38;10.57;;;8.40;99.90;;;;;;5114038;28;20198;-66
2021/11/15 04:49:39;;;;;;;17.63;11.70;;;8.40;99.90;;;;;;5113947;28;20271;-66
2021/11/15 04:52:07;;;;;;;17.23;9.70;;;8.40;99.90;;;;;;5113125;28;20230;-66
2021/11/15 04:54:33;;;;;;;14.85;10.35;;;8.30;99.90;;;;;;5113708;28;20230;-66
2021/11/15 04:56:59;;;;;;;13.30;10.02;;;8.40;99.90;;;;;;5113844;28;20252;-66
2021/11/15 04:59:26;;;;;;;13.30;10.10;;;8.40;99.90;;;;;;5113676;28;20195;-66
2021/11/15 05:01:52;;;;;;;17.00;9.77;;;8.30;99.90;;;;;;5113942;28;20259;-67
2021/11/15 05:04:19;;;;;;;15.27;9.82;;;8.30;99.90;;;;;;5112990;28;20211;-66
2021/11/15 05:06:45;;;;;;;13.77;10.32;;;8.30;99.90;;;;;;5113562;28;20247;-66
2021/11/15 05:09:13;;;;;;;14.98;10.60;;;8.30;99.90;;;;;;5113652;28;20278;-66
2021/11/15 05:11:40;;;;;;;15.75;9.93;;;8.30;99.90;;;;;;5095114;28;20654;-66
2021/11/15 05:14:06;;;;;;;13.40;9.80;;;8.20;99.90;;;;;;5094874;28;20199;-66
2021/11/15 05:16:33;;;;;;;18.30;10.80;;;8.20;99.90;;;;;;5112773;28;20206;-66
2021/11/15 05:19:00;;;;;;;14.35;10.02;;;8.20;99.90;;;;;;5113878;28;20195;-66
2021/11/15 05:21:27;;;;;;;15.48;9.20;;;8.20;99.90;;;;;;5113417;28;20194;-66
2021/11/15 05:23:54;;;;;;;18.42;10.50;;;8.20;99.90;;;;;;5113036;28;20206;-66
2021/11/15 05:26:21;;;;;;;16.45;10.70;;;8.30;99.90;;;;;;5112703;28;20232;-66
2021/11/15 05:28:48;;;;;;;16.10;10.38;;;8.20;99.90;;;;;;5113446;28;20567;-66
2021/11/15 05:31:15;;;;;;;13.88;9.95;;;8.20;99.90;;;;;;5113637;28;20206;-66
2021/11/15 05:33:41;;;;;;;16.33;10.77;;;8.20;99.90;;;;;;5113217;28;20199;-67
2021/11/15 05:36:09;;;;;;;15.93;10.50;;;8.20;99.90;;;;;;5113068;28;20222;-66
2021/11/15 05:38:35;;;;;;;21.58;11.85;;;8.20;99.90;;;;;;5112772;28;20199;-66
2021/11/15 05:41:02;;;;;;;16.23;10.40;;;8.20;99.90;;;;;;5113488;28;20604;-66
2021/11/15 05:43:28;;;;;;;20.45;12.00;;;8.20;99.90;;;;;;5113210;28;20600;-66
2021/11/15 05:45:55;;;;;;;17.60;11.55;;;8.20;99.90;;;;;;5113237;28;20210;-67
2021/11/15 05:48:22;;;;;;;17.52;11.85;;;8.20;99.90;;;;;;5113534;28;20202;-67
2021/11/15 05:50:49;;;;;;;19.17;12.82;;;8.20;99.90;;;;;;5116963;28;20203;-67
2021/11/15 05:53:16;;;;;;;18.50;11.38;;;8.20;99.90;;;;;;5115875;28;20231;-67
2021/11/15 05:55:44;;;;;;;15.88;10.85;;;8.20;99.90;;;;;;5116166;28;20225;-66
2021/11/15 05:58:10;;;;;;;16.90;11.05;;;8.20;99.90;;;;;;5116507;28;20202;-66
2021/11/15 06:00:38;;;;;;;18.95;11.55;;;8.20;99.90;;;;;;5116626;28;20198;-66
2021/11/15 06:03:05;;;;;;;17.23;10.65;;;8.20;99.90;;;;;;5116387;28;20202;-67
2021/11/15 06:05:32;;;;;;;18.63;10.85;;;8.10;99.90;;;;;;5116617;28;20288;-66
2021/11/15 06:07:58;;;;;;;18.17;11.98;;;8.10;99.90;;;;;;5116168;28;20207;-67
2021/11/15 06:10:25;;;;;;;20.40;12.18;;;8.20;99.90;;;;;;5116405;28;20250;-66
2021/11/15 06:12:52;;;;;;;19.13;13.27;;;8.20;99.90;;;;;;5115502;28;20202;-66
2021/11/15 06:15:21;;;;;;;20.20;12.25;;;8.10;99.90;;;;;;5116262;28;20218;-66
2021/11/15 06:17:48;;;;;;;17.55;11.90;;;8.10;99.90;;;;;;5116052;28;20190;-66
2021/11/15 06:20:16;;;;;;;18.58;12.13;;;8.10;99.90;;;;;;5116121;28;20206;-66
2021/11/15 06:22:43;;;;;;;17.35;11.50;;;8.10;99.90;;;;;;5115951;28;20203;-67
2021/11/15 06:25:12;;;;;;;15.85;12.25;;;8.10;99.90;;;;;;5116245;28;20203;-67
2021/11/15 06:27:39;;;;;;;18.42;11.55;;;8.10;99.90;;;;;;5116325;28;20198;-67
2021/11/15 06:30:08;;;;;;;21.63;12.80;;;8.10;99.90;;;;;;5115739;28;20213;-67
2021/11/15 06:32:35;;;;;;;19.10;14.40;;;8.10;99.90;;;;;;5116271;28;20604;-67
2021/11/15 06:35:02;;;;;;;18.02;12.50;;;8.10;99.90;;;;;;5116013;28;20221;-67
2021/11/15 06:37:29;;;;;;;23.05;14.18;;;8.10;99.90;;;;;;5115622;28;20202;-67
2021/11/15 06:39:55;;;;;;;19.70;13.77;;;8.00;99.90;;;;;;5115340;28;20662;-66
2021/11/15 06:42:22;;;;;;;19.52;12.48;;;8.00;99.90;;;;;;5115592;28;20603;-66
2021/11/15 06:44:48;;;;;;;18.17;13.25;;;8.10;99.90;;;;;;5115566;28;20574;-66
2021/11/15 06:47:15;;;;;;;18.52;13.80;;;8.00;99.90;;;;;;5115194;28;20198;-67
2021/11/15 06:49:41;;;;;;;16.13;13.15;;;8.10;99.90;;;;;;5115965;28;20203;-66
2021/11/15 06:52:08;;;;;;;16.95;11.95;;;8.10;99.90;;;;;;5115113;28;20254;-66
2021/11/15 06:54:34;;;;;;;15.43;12.60;;;8.10;99.90;;;;;;5114941;28;20249;-66
2021/11/15 06:57:01;;;;;;;14.85;11.60;;;8.10;99.90;;;;;;5115777;28;20202;-67
2021/11/15 06:59:27;;;;;;;22.95;12.70;;;8.00;99.90;;;;;;5114448;28;20707;-66
2021/11/15 07:01:54;;;;;;;18.92;12.95;;;8.10;99.90;;;;;;5114793;28;20206;-66
2021/11/15 07:04:20;;;;;;;20.30;12.80;;;8.00;99.90;;;;;;5115289;28;20202;-66
2021/11/15 07:06:46;;;;;;;14.98;11.30;;;8.00;99.90;;;;;;5115205;28;20205;-67
2021/11/15 07:09:13;;;;;;;15.88;11.23;;;8.10;99.90;;;;;;5097077;28;20666;-67
2021/11/15 07:11:40;;;;;;;18.20;13.10;;;8.00;99.90;;;;;;5115181;28;20211;-67
2021/11/15 07:14:07;;;;;;;19.20;12.40;;;8.00;99.90;;;;;;5096821;28;20202;-68
2021/11/15 07:16:34;;;;;;;17.58;13.50;;;8.00;99.90;;;;;;5117021;28;20222;-68
2021/11/15 07:19:00;;;;;;;17.40;12.10;;;8.00;99.90;;;;;;5116367;28;20202;-68
2021/11/15 07:21:27;;;;;;;14.27;12.10;;;8.00;99.90;;;;;;5116698;28;20195;-68
2021/11/15 07:23:53;;;;;;;15.43;10.65;;;8.00;99.90;;;;;;5116380;28;20194;-68
2021/11/15 07:26:21;;;;;;;15.23;12.98;;;8.00;99.90;;;;;;5116777;28;20210;-68
2021/11/15 07:28:49;;;;;;;16.63;11.93;;;8.00;99.90;;;;;;5117004;28;20198;-67
2021/11/15 07:31:16;;;;;;;18.02;12.32;;;8.00;99.90;;;;;;5116635;28;20207;-67
2021/11/15 07:33:42;;;;;;;15.52;13.00;;;8.00;99.90;;;;;;5097912;28;20211;-68
2021/11/15 07:36:10;;;;;;;13.00;10.30;;;8.00;99.90;;;;;;5116419;28;20608;-68
2021/11/15 07:38:36;;;;;;;16.83;11.55;;;8.00;99.90;;;;;;5116374;28;20285;-68
2021/11/15 07:41:03;;;;;;;18.13;12.77;;;8.00;99.90;;;;;;5116452;28;20198;-68
2021/11/15 07:43:29;;;;;;;18.20;12.93;;;8.00;99.90;;;;;;5116626;28;20720;-68
2021/11/15 07:45:56;;;;;;;17.70;13.40;;;8.00;99.90;;;;;;5116799;28;20205;-68
2021/11/15 07:48:22;;;;;;;15.65;11.77;;;8.00;99.90;;;;;;5116877;28;20202;-68
2021/11/15 07:50:49;;;;;;;16.65;12.57;;;8.00;99.90;;;;;;5116724;28;20284;-68
2021/11/15 07:53:15;;;;;;;16.60;11.88;;;8.00;99.90;;;;;;5081236;28;20218;-69
2021/11/15 07:55:42;;;;;;;13.18;10.13;;;8.00;99.90;;;;;;5116831;28;20225;-69
2021/11/15 07:58:11;;;;;;;15.48;10.35;;;8.00;99.90;;;;;;5116941;28;20199;-69
2021/11/15 08:00:38;;;;;;;16.33;11.65;;;8.00;99.90;;;;;;5115621;28;20194;-69
2021/11/15 08:03:06;;;;;;;16.60;12.15;;;8.00;99.90;;;;;;5116248;28;20206;-69
2021/11/15 08:05:33;;;;;;;12.82;11.30;;;8.00;99.90;;;;;;5115749;28;20203;-69
2021/11/15 08:08:00;;;;;;;11.88;10.20;;;8.00;99.90;;;;;;5097544;28;20661;-69
2021/11/15 08:10:30;;;;;;;11.82;9.30;;;8.00;99.90;;;;;;5116627;28;20202;-69
2021/11/15 08:12:57;;;;;;;17.10;12.20;;;8.00;99.90;;;;;;5116460;28;20199;-69
2021/11/15 08:15:26;;;;;;;18.25;11.85;;;8.00;99.90;;;;;;5114795;28;20704;-68
2021/11/15 08:17:55;;;;;;;17.00;12.35;;;8.00;99.90;;;;;;5114844;28;20202;-67
2021/11/15 08:20:28;;;;;;;19.60;13.07;;;8.10;99.90;;;;;;5114325;28;20203;-69
2021/11/15 08:23:02;;;;;;;15.68;11.90;;;8.00;99.90;;;;;;5114107;28;20190;-67
2021/11/15 08:25:51;;;;;;;13.23;10.90;;;8.10;99.90;;;;;;5114167;28;20214;-67
2021/11/15 08:28:19;;;;;;;17.13;11.82;;;8.10;99.90;;;;;;5113990;28;20202;-67
2021/11/15 08:30:45;;;;;;;12.45;10.13;;;8.10;99.90;;;;;;5113180;28;20202;-67
2021/11/15 08:33:13;;;;;;;13.18;10.50;;;8.10;99.90;;;;;;5113510;28;20202;-67
2021/11/15 08:35:40;;;;;;;15.13;10.55;;;8.10;99.90;;;;;;5113686;28;20591;-67
2021/11/15 08:38:15;;;;;;;18.48;10.52;;;8.00;99.90;;;;;;5113814;28;20199;-67
2021/11/15 08:40:48;;;;;;;14.05;11.02;;;8.10;99.90;;;;;;5113433;28;20236;-67
2021/11/15 08:43:17;;;;;;;13.93;11.20;;;8.10;99.90;;;;;;5114066;28;20665;-67
2021/11/15 08:45:44;;;;;;;15.38;10.50;;;8.10;99.90;;;;;;5114179;28;20629;-67
2021/11/15 08:48:10;;;;;;;14.82;10.05;;;8.10;99.90;;;;;;5113892;28;20206;-67
2021/11/15 08:50:37;;;;;;;12.30;10.75;;;8.00;99.90;;;;;;5113985;28;20206;-68
2021/11/15 08:53:05;;;;;;;23.67;11.07;;;8.00;99.90;;;;;;5113564;28;20230;-68
2021/11/15 08:55:32;;;;;;;17.88;10.70;;;8.10;99.90;;;;;;5114118;28;20225;-68
2021/11/15 08:57:59;;;;;;;14.15;10.30;;;8.00;99.90;;;;;;5095773;28;20191;-68
2021/11/15 09:00:27;;;;;;;13.07;10.10;;;8.00;99.90;;;;;;5114098;28;20244;-68
2021/11/15 09:02:55;;;;;;;17.73;11.23;;;8.00;99.90;;;;;;5113550;28;20210;-68
2021/11/15 09:05:21;;;;;;;14.40;10.95;;;8.10;99.90;;;;;;5113812;28;20201;-68
2021/11/15 09:07:48;;;;;;;21.85;10.40;;;8.10;99.90;;;;;;5095302;28;20202;-68
2021/11/15 09:10:16;;;;;;;10.75;9.57;;;8.10;99.90;;;;;;5113252;28;20199;-68
2021/11/15 09:12:43;;;;;;;25.90;9.20;;;8.10;99.90;;;;;;5094926;28;20198;-68
2021/11/15 09:15:14;;;;;;;16.27;9.82;;;8.10;99.90;;;;;;5113350;28;20198;-68
2021/11/15 09:17:42;;;;;;;13.05;9.63;;;8.20;99.90;;;;;;5113419;28;20183;-68
2021/11/15 09:20:10;;;;;;;11.65;9.65;;;8.20;99.90;;;;;;5096000;28;20564;-68
2021/11/15 09:22:38;;;;;;;15.70;8.93;;;8.20;99.90;;;;;;5112831;28;20199;-68
2021/11/15 09:25:06;;;;;;;12.27;8.70;;;8.20;99.90;;;;;;5117113;28;20198;-68
2021/11/15 09:27:33;;;;;;;9.43;8.20;;;8.20;99.90;;;;;;5117377;28;20210;-68
2021/11/15 09:29:59;;;;;;;9.23;7.88;;;8.30;99.90;;;;;;5117441;28;20203;-68
2021/11/15 09:32:26;;;;;;;9.15;7.60;;;8.30;99.90;;;;;;5117320;28;20252;-68
2021/11/15 09:34:52;;;;;;;9.10;7.97;;;8.20;99.90;;;;;;5117702;28;20267;-68
2021/11/15 09:37:20;;;;;;;10.65;7.70;;;8.20;99.90;;;;;;5117257;28;20286;-68
2021/11/15 09:39:50;;;;;;;9.68;7.60;;;8.20;99.90;;;;;;5117361;28;20210;-68
2021/11/15 09:42:17;;;;;;;10.00;7.88;;;8.20;99.90;;;;;;5117033;28;20695;-68
2021/11/15 09:44:44;;;;;;;19.80;8.80;;;8.20;99.90;;;;;;5116475;28;20199;-68
2021/11/15 09:47:11;;;;;;;8.50;7.10;;;8.20;99.90;;;;;;5116683;28;20212;-68
2021/11/15 09:49:38;;;;;;;10.07;7.82;;;8.30;99.90;;;;;;5116847;28;20649;-68
2021/11/15 09:52:06;;;;;;;9.75;7.28;;;8.30;99.90;;;;;;5116515;28;20778;-68
2021/11/15 09:54:33;;;;;;;7.82;6.68;;;8.30;99.90;;;;;;5116622;28;20223;-68
2021/11/15 09:56:59;;;;;;;9.40;8.18;;;8.30;99.90;;;;;;5116846;28;20215;-68
2021/11/15 09:59:28;;;;;;;10.57;7.88;;;8.30;99.90;;;;;;5098956;28;20653;-67
2021/11/15 10:01:56;;;;;;;14.00;9.32;;;8.40;99.90;;;;;;5099525;28;20657;-67
2021/11/15 10:04:24;;;;;;;12.70;8.63;;;8.30;99.90;;;;;;5117411;28;20209;-67
2021/11/15 10:06:53;;;;;;;14.85;8.57;;;8.30;99.90;;;;;;5116177;28;20205;-67
2021/11/15 10:09:28;;;;;;;12.23;8.27;;;8.30;99.90;;;;;;5116299;28;20213;-67
2021/11/15 10:11:57;;;;;;;14.07;8.57;;;8.30;99.90;;;;;;5116823;28;20566;-67
2021/11/15 10:14:24;;;;;;;14.45;9.25;;;8.20;99.90;;;;;;5116293;28;20217;-67
2021/11/15 10:16:56;;;;;;;10.05;8.23;;;8.20;99.90;;;;;;5116757;28;20590;-67
2021/11/15 10:19:23;;;;;;;12.35;8.00;;;8.20;99.90;;;;;;5116618;28;20183;-68
2021/11/15 10:21:55;;;;;;;9.40;8.23;;;8.20;99.90;;;;;;5115373;28;20201;-68
2021/11/15 10:24:33;;;;;;;15.32;9.82;;;8.20;99.90;;;;;;5116909;28;20206;-68
2021/11/15 10:27:06;;;;;;;11.18;7.65;;;8.20;99.90;;;;;;5116008;28;20571;-68
2021/11/15 10:29:40;;;;;;;14.23;9.25;;;8.20;99.90;;;;;;5116439;28;20205;-68
2021/11/15 10:32:12;;;;;;;9.88;7.47;;;8.20;99.90;;;;;;5116171;28;20654;-68
2021/11/15 10:34:42;;;;;;;12.48;8.40;;;8.20;99.90;;;;;;5116614;28;20587;-68
2021/11/15 10:37:19;;;;;;;11.43;9.40;;;8.20;99.90;;;;;;5115845;28;20221;-68
2021/11/15 10:40:08;;;;;;;14.02;8.27;;;8.20;99.90;;;;;;5115479;28;20550;-68
2021/11/15 10:42:37;;;;;;;21.90;8.90;;;8.20;99.90;;;;;;5116277;28;20179;-68
2021/11/15 10:45:11;;;;;;;9.32;7.35;;;8.30;99.90;;;;;;5116048;28;20260;-68
2021/11/15 10:47:56;;;;;;;12.65;7.90;;;8.40;99.90;;;;;;5116130;28;20203;-68
2021/11/15 10:50:47;;;;;;;10.38;7.57;;;8.40;99.90;;;;;;5097631;28;20198;-68
2021/11/15 10:53:25;;;;;;;7.65;6.82;;;8.40;99.90;;;;;;5115547;28;20284;-68
2021/11/15 10:56:04;;;;;;;22.63;10.88;;;8.40;99.90;;;;;;5115600;28;20214;-68
2021/11/15 10:58:39;;;;;;;14.13;8.65;;;8.50;99.90;;;;;;5115514;28;20198;-68
2021/11/15 11:01:05;;;;;;;12.82;7.50;;;8.50;99.90;;;;;;5116269;28;20187;-68
2021/11/15 11:03:33;;;;;;;15.48;8.85;;;8.50;99.90;;;;;;5097261;28;20199;-68
2021/11/15 11:06:12;;;;;;;24.40;8.95;;;8.60;99.90;;;;;;5080611;28;20271;-68
2021/11/15 11:08:46;;;;;;;9.85;8.13;;;8.70;99.90;;;;;;5115677;28;20186;-68
2021/11/15 11:11:25;;;;;;;14.05;8.50;;;8.70;99.90;;;;;;5115034;28;20213;-68
2021/11/15 11:13:56;;;;;;;11.48;7.78;;;8.60;99.90;;;;;;5115322;28;20634;-68
2021/11/15 11:16:51;;;;;;;10.20;8.20;;;8.70;99.90;;;;;;5114539;28;20246;-68
2021/11/15 11:19:33;;;;;;;11.57;8.27;;;8.70;99.90;;;;;;5115072;28;20207;-67
2021/11/15 11:27:27;;;;;;;12.68;10.55;;;8.50;99.90;;;;;;5115212;28;20191;-68
2021/11/15 11:29:55;;;;;;;9.07;7.50;;;8.50;99.90;;;;;;5115331;28;20410;-68
2021/11/15 11:32:26;;;;;;;15.32;10.05;;;8.50;99.90;;;;;;5115478;28;20198;-69
2021/11/15 11:34:56;;;;;;;11.65;8.82;;;8.50;99.90;;;;;;5115013;28;20190;-69
2021/11/15 11:37:28;;;;;;;9.65;7.75;;;8.40;99.90;;;;;;5114656;28;20700;-69
2021/11/15 11:39:58;;;;;;;11.63;7.47;;;8.40;99.90;;;;;;5114768;28;20195;-67
2021/11/15 11:42:25;;;;;;;13.15;8.45;;;8.50;99.90;;;;;;5114451;28;20209;-67
2021/11/15 11:44:53;;;;;;;13.00;7.28;;;8.50;99.90;;;;;;5114452;28;20209;-67
2021/11/15 11:47:24;;;;;;;10.63;8.30;;;8.50;99.90;;;;;;5113988;28;20218;-68
2021/11/15 11:49:50;;;;;;;15.40;9.27;;;8.50;99.90;;;;;;5113975;28;20198;-68
2021/11/15 11:52:28;;;;;;;12.40;8.15;;;8.50;99.90;;;;;;5115065;28;20222;-68
2021/11/15 11:54:56;;;;;;;10.55;8.25;;;8.40;99.90;;;;;;5114446;28;20241;-68
2021/11/15 11:57:30;;;;;;;12.38;9.35;;;8.40;99.90;;;;;;5115210;28;20225;-67
2021/11/15 12:00:09;;;;;;;16.23;9.55;;;8.40;99.90;;;;;;5114631;28;20189;-68
2021/11/15 12:02:36;;;;;;;13.55;9.52;;;8.50;99.90;;;;;;5114962;28;20181;-69
2021/11/15 12:05:10;;;;;;;20.35;10.52;;;8.50;99.90;;;;;;5114979;28;20193;-69
2021/11/15 12:07:43;;;;;;;18.55;9.10;;;8.50;99.90;;;;;;5113528;28;20198;-69
2021/11/15 12:10:14;;;;;;;12.65;8.00;;;8.50;99.90;;;;;;5114645;28;20182;-67
2021/11/15 12:12:53;;;;;;;9.82;7.85;;;8.50;99.90;;;;;;5114138;28;20251;-67
2021/11/15 12:15:35;;;;;;;14.00;10.38;;;8.40;99.90;;;;;;5114196;28;20205;-68
2021/11/15 12:18:18;;;;;;;10.23;7.93;;;8.40;99.90;;;;;;5114419;28;20198;-69
2021/11/15 12:21:03;;;;;;;19.45;8.18;;;8.40;99.90;;;;;;5114557;28;20182;-69
2021/11/15 12:23:35;;;;;;;11.77;8.25;;;8.40;99.90;;;;;;5113953;28;20562;-69
2021/11/15 12:26:17;;;;;;;18.00;9.50;;;8.40;99.90;;;;;;5114616;28;20194;-69
2021/11/15 12:28:46;;;;;;;12.40;9.85;;;8.40;99.90;;;;;;5113927;28;20202;-69
2021/11/15 12:31:15;;;;;;;14.98;9.63;;;8.40;99.90;;;;;;5113992;28;20194;-69
2021/11/15 12:33:43;;;;;;;14.38;10.60;;;8.30;99.90;;;;;;5112198;28;20194;-68
2021/11/15 12:36:23;;;;;;;14.32;9.70;;;8.40;99.90;;;;;;5113675;28;20225;-68
2021/11/15 12:38:53;;;;;;;13.13;9.98;;;8.40;99.90;;;;;;5113486;28;20197;-68
2021/11/15 12:41:21;;;;;;;14.15;9.70;;;8.40;99.90;;;;;;5113539;28;20195;-68
2021/11/15 12:44:21;;;;;;;14.18;10.38;;;8.40;99.90;;;;;;5113913;28;20194;-69
2021/11/15 12:46:59;;;;;;;14.80;10.27;;;8.50;99.90;;;;;;5113167;28;20198;-69
2021/11/15 12:49:41;;;;;;;22.75;10.93;;;8.50;99.90;;;;;;5113697;28;20193;-68
2021/11/15 12:54:39;;;;;;;17.45;11.55;;;8.50;99.90;;;;;;5114060;28;20561;-68
2021/11/15 12:57:19;;;;;;;15.40;10.30;;;8.50;99.90;;;;;;5113861;28;20207;-69